Etusivu
METAR-TAF:

METAR-TAF

Lentoasemat :

Saginaw County H.W. Browne Airport

Saginaw, Michigan, Yhdysvallat

Leveyspiiri: 43-26-00N, Pituuspiiri: 083-51-45W, korkeus merenpinnasta: 183 m

Tämänhetkinen sää

Tämä raportti tehtiin 20 minuuttia sitten, kello 09.55 UTC
Tuuli 8 kn lounaasta
Lämpötila -1°C
Kosteus 80%
Ilmanpaine 1000 hPa
Näkyvyys: 16.1 km
selkeää

METAR: KHYX 210955Z AUTO 22008KT 10SM CLR M01/M04 A2954 RMK AO2

Aika: 05:15 (10:15 UTC)


TAF: puuttuu

Säähavainnot ja -ennusteet yli 4000 lentoasemalta (METAR- ja TAF-raportit).

Käytössä olevat sääasemat on merkitty karttaan keltaisilla ja punaisilla pisteillä.

Aseta hiiri pisteen päälle nähdäksesi sääaseman nimen.

Klikkaa sitten nähdäksesi säähavainnot ja -ennusteet.

Kartan vaihtaminen: klikkaa mustalla rastilla varustettuja vihreitä pisteitä, niin voit zoomata sisään; viivalla varustettua vihreää pistettä, niin voit zoomata ulos tai vihreitä nuolia, niin pääset viereisille kartoille.


METAR-TAF: